»·PEaware :: N320PR KIFP-KVCV

N320PR :: KIFP-KVCV

FLIGHT INFORMATION

Flight Status: Arrived
Operator: Privately registered:
United States
More flights under this callsign
Pilot: Ricardo U. (11497)
Aircraft: AIRBUS A320
(A320)
More flights by this aircraft type
Origin: KIFP Laughlin/Bullhead Intl
United States
Destination: KVCV Socal Logistics
United States
More flights between these airports :: More routes between these airports
Route: +EED GFS DAG
File this flight plan on PilotEdge
Remarks:
Altitude:
(Current/Filed)
22,000ft
Speed:
(Current/Filed)
380kts
Departed: 19-Jul-18 07:13 PM
Arrived: 19-Jul-18 07:45 PM
Distance/Time
Traveled:
143nm/0:32
Distance/Time
To Go:
Arrived

Flight Plot

Page will automatically refresh every two minutes.

Flight plan parsing failed; only flown route is shown


Map Options




Map Legend


Flown Route
Filed Route
Departure Airport
Arrival Airport
Navaid (VOR, NDB)
Fix

Horizontal Profiles

Position Reports

Time Latitude Longitude Heading Altitude Ground
Speed
19-Jul-18 18:54 35.164554 -114.556561 83 655ft 0kts
19-Jul-18 18:55 35.164554 -114.556561 83 655ft 0kts
19-Jul-18 18:56 35.164554 -114.556561 83 655ft 0kts
19-Jul-18 18:57 35.164554 -114.556561 83 655ft 0kts
19-Jul-18 18:58 35.164554 -114.556561 83 655ft 0kts
19-Jul-18 18:59 35.164554 -114.556561 83 655ft 0kts
19-Jul-18 19:00 35.164554 -114.556561 83 655ft 0kts
19-Jul-18 19:01 35.164554 -114.556561 83 655ft 0kts
19-Jul-18 19:02 35.164554 -114.556561 83 655ft 0kts
19-Jul-18 19:03 35.164520 -114.556836 75 655ft 2kts
19-Jul-18 19:04 35.164133 -114.557291 356 655ft 1kts
19-Jul-18 19:05 35.164134 -114.557291 356 655ft 0kts
19-Jul-18 19:06 35.164135 -114.557291 356 655ft 0kts
19-Jul-18 19:07 35.164644 -114.558383 264 655ft 11kts
19-Jul-18 19:08 35.167454 -114.559146 331 655ft 8kts
19-Jul-18 19:09 35.167546 -114.559494 271 655ft 0kts
19-Jul-18 19:10 35.167546 -114.559495 271 655ft 0kts
19-Jul-18 19:11 35.167546 -114.559496 271 655ft 0kts
19-Jul-18 19:12 35.167011 -114.560266 175 655ft 0kts
19-Jul-18 19:13 35.166882 -114.560254 176 655ft 8kts
19-Jul-18 19:14 35.136040 -114.557173 169 2428ft 121kts
19-Jul-18 19:15 35.098680 -114.548785 172 3863ft 165kts
19-Jul-18 19:16 35.044694 -114.536571 171 5787ft 230kts
19-Jul-18 19:17 34.972671 -114.520309 170 8428ft 289kts
19-Jul-18 19:18 34.890573 -114.503273 176 11443ft 320kts
19-Jul-18 19:19 34.811376 -114.562203 243 13202ft 387kts
19-Jul-18 19:20 34.833374 -114.685897 319 15762ft 410kts
19-Jul-18 19:21 34.923548 -114.768372 298 18139ft 425kts
19-Jul-18 19:22 34.985025 -114.894860 302 20353ft 440kts
19-Jul-18 19:23 35.052046 -115.022792 301 21862ft 451kts
19-Jul-18 19:24 35.116423 -115.153877 290 21864ft 450kts
19-Jul-18 19:25 35.117016 -115.302809 258 21882ft 443kts
19-Jul-18 19:26 35.099272 -115.452183 260 21894ft 444kts
19-Jul-18 19:27 35.081769 -115.601105 259 21921ft 443kts
19-Jul-18 19:28 35.064134 -115.750215 259 21958ft 443kts
19-Jul-18 19:29 35.046261 -115.898918 259 21971ft 443kts
19-Jul-18 19:30 35.028431 -116.045950 259 21592ft 417kts
19-Jul-18 19:31 35.012356 -116.177531 258 19936ft 381kts
19-Jul-18 19:32 34.996838 -116.303197 258 17615ft 369kts
19-Jul-18 19:33 34.981609 -116.425078 259 15356ft 357kts
19-Jul-18 19:34 34.966843 -116.542880 259 13929ft 350kts
19-Jul-18 19:35 34.937557 -116.655117 242 13922ft 347kts
19-Jul-18 19:36 34.893584 -116.758851 238 13731ft 338kts
19-Jul-18 19:37 34.848475 -116.858309 238 11797ft 324kts
19-Jul-18 19:38 34.806615 -116.950201 238 10393ft 305kts
19-Jul-18 19:39 34.765848 -117.038851 238 8724ft 296kts
19-Jul-18 19:40 34.727471 -117.122086 239 7994ft 256kts
19-Jul-18 19:41 34.695401 -117.191689 239 8052ft 216kts
19-Jul-18 19:42 34.669392 -117.251190 236 7118ft 187kts
19-Jul-18 19:43 34.650625 -117.300839 232 5752ft 152kts
19-Jul-18 19:44 34.623284 -117.339108 220 4031ft 145kts
19-Jul-18 19:45 34.596237 -117.371645 222 2867ft 118kts
19-Jul-18 19:46 34.589290 -117.378048 136 2865ft 4kts
19-Jul-18 19:47 34.589049 -117.377765 135 2865ft 0kts
19-Jul-18 19:48 34.589049 -117.377764 135 2865ft 0kts
19-Jul-18 19:49 34.588175 -117.376738 142 2865ft 11kts
19-Jul-18 19:50 34.587306 -117.375780 135 2865ft 0kts
19-Jul-18 19:51 34.587306 -117.375780 135 2865ft 0kts
19-Jul-18 19:52 34.587306 -117.375780 135 2865ft 0kts
19-Jul-18 19:53 34.587306 -117.375780 135 2865ft 0kts
19-Jul-18 19:54 34.587306 -117.375780 135 2865ft 0kts
19-Jul-18 19:55 34.587306 -117.375780 135 2865ft 0kts
19-Jul-18 19:56 34.587306 -117.375780 135 2865ft 0kts
19-Jul-18 19:57 34.587306 -117.375780 135 2865ft 0kts
19-Jul-18 19:58 34.587306 -117.375780 135 2865ft 0kts
19-Jul-18 19:59 34.587306 -117.375780 135 2865ft 0kts

Navigation Log

Ident Type
Flight plan parsing failed, navigation log unavailable